Linda L. Miller — WDF5279 — position and weather

sailwx.info

Track history (hours):
 
Tides and Currents Weather Stations Pressure Air Temp Water Temp Dewpoint Dewpoint Depression Visibility Wind Speed Wind Dir Waves Ship Positions

Linda L. Miller

Owner: Miller's Launch, Staten Island, NY. More information available from US FCC via Universal Licensing System and Coast Guard Vessel Documentation Center.

Last reported at 2017-Nov-18 19:26 UTC. Time now 2017-Nov-24 11:11 UTC.
Position N 40°38' W 074°04'.

Length 9 m.

MMSI: 367461380.

Date/timePositionNaut miles runAvg speedWind from/ knotsBaromVisibWave heightAir tempDewpointWater temp
2017-Nov-18 19:26N 40°38' W 074°04'0 0.1
2017-Nov-18 17:47N 40°38' W 074°04'0 0.4
2017-Nov-18 17:30N 40°38' W 074°04'0 0.0
2017-Nov-16 16:21N 40°38' W 074°04'0 0.1
2017-Nov-16 16:01N 40°38' W 074°04'1 2.2
2017-Nov-16 15:31N 40°39' W 074°04'4 7.2
2017-Nov-16 15:01N 40°42' W 074°02'1 2.3
2017-Nov-16 14:30N 40°44' W 074°02'0 0.1
2017-Nov-16 14:01N 40°44' W 074°02'0 0.0
2017-Nov-16 13:30N 40°44' W 074°02'1 2.7
2017-Nov-16 13:01N 40°45' W 074°01'1 1.9
2017-Nov-16 12:30N 40°46' W 074°01'0 0.3
2017-Nov-16 12:00N 40°46' W 074°01'0 0.0
2017-Nov-16 11:31N 40°46' W 074°01'0 0.2
2017-Nov-16 11:00N 40°46' W 074°01'3 7.0
2017-Nov-16 10:31N 40°42' W 074°02'4 7.4
2017-Nov-16 10:00N 40°39' W 074°04'1 0.0
2017-Nov-15 15:14N 40°38' W 074°04'0 0.3
2017-Nov-15 15:00N 40°38' W 074°04'3 6.4
2017-Nov-15 14:30N 40°41' W 074°03'1 1.3
2017-Nov-15 14:00N 40°41' W 074°03'0 0.9
2017-Nov-15 13:30N 40°41' W 074°03'1 1.9
2017-Nov-15 13:00N 40°42' W 074°04'1 2.7
2017-Nov-15 12:30N 40°41' W 074°03'3 5.7
2017-Nov-15 12:00N 40°38' W 074°04'  
2017-Nov-10 22:44N 40°38' W 074°04'1 4.4
2017-Nov-10 22:30N 40°39' W 074°05'2 3.7
2017-Nov-10 22:00N 40°38' W 074°08'1 2.3
2017-Nov-10 21:30N 40°39' W 074°09'3 6.7
2017-Nov-10 21:00N 40°42' W 074°07'2 4.6
2017-Nov-10 20:30N 40°44' W 074°07'0 0.3
2017-Nov-10 20:00N 40°45' W 074°07'1 2.6
2017-Nov-10 19:30N 40°44' W 074°09'0 0.0
2017-Nov-10 19:00N 40°44' W 074°09'0 0.0
2017-Nov-10 18:30N 40°44' W 074°09'0 0.0
2017-Nov-10 18:00N 40°44' W 074°09'0 0.0
2017-Nov-10 17:30N 40°44' W 074°09'0 0.7
2017-Nov-10 17:00N 40°44' W 074°09'1 2.4
2017-Nov-10 16:30N 40°44' W 074°07'0 0.5
2017-Nov-10 16:00N 40°44' W 074°07'0 0.5
2017-Nov-10 15:30N 40°44' W 074°07'2 3.3
2017-Nov-10 15:00N 40°43' W 074°07'2 4.8
2017-Nov-10 14:30N 40°40' W 074°08'2 3.4
2017-Nov-10 14:00N 40°39' W 074°08'1 1.0
2017-Nov-10 13:30N 40°38' W 074°08'2 4.9
2017-Nov-10 13:00N 40°39' W 074°05'1 1.5
2017-Nov-10 12:30N 40°38' W 074°04'0 0.0
2017-Nov-10 12:00N 40°38' W 074°04'0 0.0
2017-Nov-09 21:03N 40°38' W 074°04'0 0.1
2017-Nov-09 21:00N 40°38' W 074°04'2 3.7
2017-Nov-09 20:29N 40°39' W 074°07'4 7.6
2017-Nov-09 20:00N 40°38' W 074°12'4 6.7
2017-Nov-09 19:29N 40°35' W 074°12'2 0.5
2017-Nov-09 16:29N 40°37' W 074°12'3 5.7
2017-Nov-09 16:00N 40°39' W 074°10'4 7.8
2017-Nov-09 15:30N 40°39' W 074°05'1 2.0
2017-Nov-09 15:00N 40°38' W 074°04'0 0.0
2017-Nov-09 14:30N 40°38' W 074°04'0 0.0
2017-Nov-09 14:00N 40°38' W 074°04'0 0.0
2017-Nov-09 13:30N 40°38' W 074°04'  
Track history (hours):
 
Tides and Currents Weather Stations Pressure Air Temp Water Temp Dewpoint Dewpoint Depression Visibility Wind Speed Wind Dir Waves Ship Positions

Linda L. Miller

Owner: Miller's Launch, Staten Island, NY. More information available from US FCC via Universal Licensing System and Coast Guard Vessel Documentation Center.

Last reported at 2017-Nov-18 19:26 UTC. Time now 2017-Nov-24 11:11 UTC.
Position N 40°38' W 074°04'.

Length 9 m.

MMSI: 367461380.

Date/timePositionNaut miles runAvg speedWind from/ knotsBaromVisibWave heightAir tempDewpointWater temp
2017-Nov-18 19:26N 40°38' W 074°04'0 0.1
2017-Nov-18 17:47N 40°38' W 074°04'0 0.4
2017-Nov-18 17:30N 40°38' W 074°04'0 0.0
2017-Nov-16 16:21N 40°38' W 074°04'0 0.1
2017-Nov-16 16:01N 40°38' W 074°04'1 2.2
2017-Nov-16 15:31N 40°39' W 074°04'4 7.2
2017-Nov-16 15:01N 40°42' W 074°02'1 2.3
2017-Nov-16 14:30N 40°44' W 074°02'0 0.1
2017-Nov-16 14:01N 40°44' W 074°02'0 0.0
2017-Nov-16 13:30N 40°44' W 074°02'1 2.7
2017-Nov-16 13:01N 40°45' W 074°01'1 1.9
2017-Nov-16 12:30N 40°46' W 074°01'0 0.3
2017-Nov-16 12:00N 40°46' W 074°01'0 0.0
2017-Nov-16 11:31N 40°46' W 074°01'0 0.2
2017-Nov-16 11:00N 40°46' W 074°01'3 7.0
2017-Nov-16 10:31N 40°42' W 074°02'4 7.4
2017-Nov-16 10:00N 40°39' W 074°04'1 0.0
2017-Nov-15 15:14N 40°38' W 074°04'0 0.3
2017-Nov-15 15:00N 40°38' W 074°04'3 6.4
2017-Nov-15 14:30N 40°41' W 074°03'1 1.3
2017-Nov-15 14:00N 40°41' W 074°03'0 0.9
2017-Nov-15 13:30N 40°41' W 074°03'1 1.9
2017-Nov-15 13:00N 40°42' W 074°04'1 2.7
2017-Nov-15 12:30N 40°41' W 074°03'3 5.7
2017-Nov-15 12:00N 40°38' W 074°04'  
2017-Nov-10 22:44N 40°38' W 074°04'1 4.4
2017-Nov-10 22:30N 40°39' W 074°05'2 3.7
2017-Nov-10 22:00N 40°38' W 074°08'1 2.3
2017-Nov-10 21:30N 40°39' W 074°09'3 6.7
2017-Nov-10 21:00N 40°42' W 074°07'2 4.6
2017-Nov-10 20:30N 40°44' W 074°07'0 0.3
2017-Nov-10 20:00N 40°45' W 074°07'1 2.6
2017-Nov-10 19:30N 40°44' W 074°09'0 0.0
2017-Nov-10 19:00N 40°44' W 074°09'0 0.0
2017-Nov-10 18:30N 40°44' W 074°09'0 0.0
2017-Nov-10 18:00N 40°44' W 074°09'0 0.0
2017-Nov-10 17:30N 40°44' W 074°09'0 0.7
2017-Nov-10 17:00N 40°44' W 074°09'1 2.4
2017-Nov-10 16:30N 40°44' W 074°07'0 0.5
2017-Nov-10 16:00N 40°44' W 074°07'0 0.5
2017-Nov-10 15:30N 40°44' W 074°07'2 3.3
2017-Nov-10 15:00N 40°43' W 074°07'2 4.8
2017-Nov-10 14:30N 40°40' W 074°08'2 3.4
2017-Nov-10 14:00N 40°39' W 074°08'1 1.0
2017-Nov-10 13:30N 40°38' W 074°08'2 4.9
2017-Nov-10 13:00N 40°39' W 074°05'1 1.5
2017-Nov-10 12:30N 40°38' W 074°04'0 0.0
2017-Nov-10 12:00N 40°38' W 074°04'0 0.0
2017-Nov-09 21:03N 40°38' W 074°04'0 0.1
2017-Nov-09 21:00N 40°38' W 074°04'2 3.7
2017-Nov-09 20:29N 40°39' W 074°07'4 7.6
2017-Nov-09 20:00N 40°38' W 074°12'4 6.7
2017-Nov-09 19:29N 40°35' W 074°12'2 0.5
2017-Nov-09 16:29N 40°37' W 074°12'3 5.7
2017-Nov-09 16:00N 40°39' W 074°10'4 7.8
2017-Nov-09 15:30N 40°39' W 074°05'1 2.0
2017-Nov-09 15:00N 40°38' W 074°04'0 0.0
2017-Nov-09 14:30N 40°38' W 074°04'0 0.0
2017-Nov-09 14:00N 40°38' W 074°04'0 0.0
2017-Nov-09 13:30N 40°38' W 074°04'  

Dump ship's entire track history